sensor_id;sensor_type;location;lat;lon;timestamp;pressure;altitude;pressure_sealevel;temperature;humidity
60337;BME280;46978;50.288;28.624;2023-04-26T00:01:32;97859.53;;;8.40;88.02
60337;BME280;46978;50.288;28.624;2023-04-26T00:02:33;97852.62;;;8.41;87.83
60337;BME280;46978;50.288;28.624;2023-04-26T00:03:35;97857.73;;;8.42;87.96
60337;BME280;46978;50.288;28.624;2023-04-26T00:04:37;97855.15;;;8.42;87.88
60337;BME280;46978;50.288;28.624;2023-04-26T00:05:39;97856.00;;;8.45;87.66
60337;BME280;46978;50.288;28.624;2023-04-26T00:06:41;97847.27;;;8.47;87.78
60337;BME280;46978;50.288;28.624;2023-04-26T00:07:43;97854.09;;;8.50;87.68
60337;BME280;46978;50.288;28.624;2023-04-26T00:08:46;97855.73;;;8.52;87.44
60337;BME280;46978;50.288;28.624;2023-04-26T00:09:48;97850.56;;;8.52;87.52
60337;BME280;46978;50.288;28.624;2023-04-26T00:10:49;97848.81;;;8.53;87.35
60337;BME280;46978;50.288;28.624;2023-04-26T00:11:51;97853.98;;;8.53;87.18
60337;BME280;46978;50.288;28.624;2023-04-26T00:12:55;97850.46;;;8.55;87.39
60337;BME280;46978;50.288;28.624;2023-04-26T00:13:59;97851.30;;;8.56;87.21
60337;BME280;46978;50.288;28.624;2023-04-26T00:15:02;97848.66;;;8.57;86.91
60337;BME280;46978;50.288;28.624;2023-04-26T00:16:04;97858.95;;;8.59;86.87
60337;BME280;46978;50.288;28.624;2023-04-26T00:17:06;97844.16;;;8.63;86.68
60337;BME280;46978;50.288;28.624;2023-04-26T00:18:07;97844.16;;;8.63;86.68
60337;BME280;46978;50.288;28.624;2023-04-26T00:19:09;97850.09;;;8.66;86.98
60337;BME280;46978;50.288;28.624;2023-04-26T00:20:11;97844.81;;;8.69;86.96
60337;BME280;46978;50.288;28.624;2023-04-26T00:21:13;97839.53;;;8.72;87.03
60337;BME280;46978;50.288;28.624;2023-04-26T00:22:15;97847.19;;;8.75;86.64
60337;BME280;46978;50.288;28.624;2023-04-26T00:23:17;97842.80;;;8.77;86.66
60337;BME280;46978;50.288;28.624;2023-04-26T00:24:18;97843.52;;;8.81;86.53
60337;BME280;46978;50.288;28.624;2023-04-26T00:25:20;97841.74;;;8.83;86.30
60337;BME280;46978;50.288;28.624;2023-04-26T00:26:22;97841.63;;;8.86;86.38
60337;BME280;46978;50.288;28.624;2023-04-26T00:31:44;97838.10;;;9.12;85.60
60337;BME280;46978;50.288;28.624;2023-04-26T00:32:46;97839.27;;;9.04;85.54
60337;BME280;46978;50.288;28.624;2023-04-26T00:33:48;97830.67;;;9.03;85.40
60337;BME280;46978;50.288;28.624;2023-04-26T00:34:51;97841.80;;;9.05;85.47
60337;BME280;46978;50.288;28.624;2023-04-26T00:35:53;97838.27;;;9.08;85.37
60337;BME280;46978;50.288;28.624;2023-04-26T00:36:54;97836.52;;;9.08;84.97
60337;BME280;46978;50.288;28.624;2023-04-26T00:37:56;97840.80;;;9.09;85.13
60337;BME280;46978;50.288;28.624;2023-04-26T00:38:57;97837.30;;;9.10;85.20
60337;BME280;46978;50.288;28.624;2023-04-26T00:39:59;97838.10;;;9.12;85.31
60337;BME280;46978;50.288;28.624;2023-04-26T00:41:01;97836.34;;;9.13;85.14
60337;BME280;46978;50.288;28.624;2023-04-26T00:42:03;97836.29;;;9.14;85.24
60337;BME280;46978;50.288;28.624;2023-04-26T00:43:05;97837.13;;;9.15;84.92
60337;BME280;46978;50.288;28.624;2023-04-26T00:44:07;97835.34;;;9.17;84.78
60337;BME280;46978;50.288;28.624;2023-04-26T00:45:09;97836.13;;;9.19;84.62
60337;BME280;46978;50.288;28.624;2023-04-26T00:46:11;97832.64;;;9.20;84.46
60337;BME280;46978;50.288;28.624;2023-04-26T00:47:14;97830.00;;;9.22;84.13
60337;BME280;46978;50.288;28.624;2023-04-26T00:48:16;97836.01;;;9.22;83.86
60337;BME280;46978;50.288;28.624;2023-04-26T00:49:21;97829.91;;;9.23;83.66
60337;BME280;46978;50.288;28.624;2023-04-26T00:50:23;97829.91;;;9.23;83.39
60337;BME280;46978;50.288;28.624;2023-04-26T00:51:25;97835.89;;;9.25;83.25
60337;BME280;46978;50.288;28.624;2023-04-26T00:52:27;97827.20;;;9.26;82.77
60337;BME280;46978;50.288;28.624;2023-04-26T00:53:30;97834.08;;;9.27;82.59
60337;BME280;46978;50.288;28.624;2023-04-26T00:54:32;97828.02;;;9.28;82.48
60337;BME280;46978;50.288;28.624;2023-04-26T00:55:34;97828.84;;;9.29;82.26
60337;BME280;46978;50.288;28.624;2023-04-26T00:56:37;97826.25;;;9.29;82.04
60337;BME280;46978;50.288;28.624;2023-04-26T00:57:39;97830.55;;;9.30;81.69
60337;BME280;46978;50.288;28.624;2023-04-26T00:58:41;97830.55;;;9.30;81.48
60337;BME280;46978;50.288;28.624;2023-04-26T00:59:43;97829.63;;;9.31;81.27
60337;BME280;46978;50.288;28.624;2023-04-26T01:00:45;97828.73;;;9.32;81.41
60337;BME280;46978;50.288;28.624;2023-04-26T01:01:47;97828.73;;;9.32;80.79
60337;BME280;46978;50.288;28.624;2023-04-26T01:02:49;97830.43;;;9.33;80.89
60337;BME280;46978;50.288;28.624;2023-04-26T01:03:50;97830.43;;;9.33;80.69
60337;BME280;46978;50.288;28.624;2023-04-26T01:04:52;97825.19;;;9.35;80.57
60337;BME280;46978;50.288;28.624;2023-04-26T01:05:54;97826.92;;;9.34;79.82
60337;BME280;46978;50.288;28.624;2023-04-26T01:06:57;97828.61;;;9.35;78.94
60337;BME280;46978;50.288;28.624;2023-04-26T01:07:59;97826.86;;;9.36;79.15
60337;BME280;46978;50.288;28.624;2023-04-26T01:09:03;97825.97;;;9.37;79.18
60337;BME280;46978;50.288;28.624;2023-04-26T01:11:29;97826.80;;;9.37;77.77
60337;BME280;46978;50.288;28.624;2023-04-26T01:12:31;97823.32;;;9.38;76.66
60337;BME280;46978;50.288;28.624;2023-04-26T01:13:34;97818.08;;;9.40;77.07
60337;BME280;46978;50.288;28.624;2023-04-26T01:14:38;97818.08;;;9.40;77.07
60337;BME280;46978;50.288;28.624;2023-04-26T01:15:45;97819.78;;;9.41;76.07
60337;BME280;46978;50.288;28.624;2023-04-26T01:16:48;97815.55;;;9.38;75.45
60337;BME280;46978;50.288;28.624;2023-04-26T01:17:50;97815.50;;;9.40;74.45
60337;BME280;46978;50.288;28.624;2023-04-26T01:18:52;97819.78;;;9.41;74.01
60337;BME280;46978;50.288;28.624;2023-04-26T01:19:54;97819.78;;;9.41;74.07
60337;BME280;46978;50.288;28.624;2023-04-26T01:20:56;97825.80;;;9.41;74.07
60337;BME280;46978;50.288;28.624;2023-04-26T01:21:57;97824.91;;;9.42;74.12
60337;BME280;46978;50.288;28.624;2023-04-26T01:22:59;97822.31;;;9.42;74.17
60337;BME280;46978;50.288;28.624;2023-04-26T01:24:01;97823.14;;;9.43;74.03
60337;BME280;46978;50.288;28.624;2023-04-26T01:25:03;97817.14;;;9.42;72.86
60337;BME280;46978;50.288;28.624;2023-04-26T01:26:06;97812.79;;;9.43;72.45
60337;BME280;46978;50.288;28.624;2023-04-26T01:27:08;97817.08;;;9.44;71.80
60337;BME280;46978;50.288;28.624;2023-04-26T01:28:11;97816.21;;;9.43;71.57
60337;BME280;46978;50.288;28.624;2023-04-26T01:29:18;97811.90;;;9.44;70.85
60337;BME280;46978;50.288;28.624;2023-04-26T01:30:20;97818.80;;;9.43;69.70
60337;BME280;46978;50.288;28.624;2023-04-26T01:31:22;97817.08;;;9.44;70.11
60337;BME280;46978;50.288;28.624;2023-04-26T01:32:24;97812.73;;;9.44;69.83
60337;BME280;46978;50.288;28.624;2023-04-26T01:33:26;97818.74;;;9.45;69.41
60337;BME280;46978;50.288;28.624;2023-04-26T01:34:28;97816.16;;;9.45;69.32
60337;BME280;46978;50.288;28.624;2023-04-26T01:35:29;97817.02;;;9.45;68.03
60337;BME280;46978;50.288;28.624;2023-04-26T01:36:31;97809.25;;;9.45;67.89
60337;BME280;46978;50.288;28.624;2023-04-26T01:37:32;97810.91;;;9.46;67.80
60337;BME280;46978;50.288;28.624;2023-04-26T01:38:34;97804.07;;;9.45;68.03
60337;BME280;46978;50.288;28.624;2023-04-26T01:39:36;97810.97;;;9.45;67.20
60337;BME280;46978;50.288;28.624;2023-04-26T01:40:38;97803.20;;;9.45;67.34
60337;BME280;46978;50.288;28.624;2023-04-26T01:41:39;97808.33;;;9.46;67.29
60337;BME280;46978;50.288;28.624;2023-04-26T01:42:41;97805.73;;;9.46;67.43
60337;BME280;46978;50.288;28.624;2023-04-26T01:43:43;97805.73;;;9.46;66.74
60337;BME280;46978;50.288;28.624;2023-04-26T01:44:44;97804.07;;;9.45;66.72
60337;BME280;46978;50.288;28.624;2023-04-26T01:45:46;97801.48;;;9.45;66.97
60337;BME280;46978;50.288;28.624;2023-04-26T01:46:48;97811.78;;;9.47;67.04
60337;BME280;46978;50.288;28.624;2023-04-26T01:47:50;97802.38;;;9.44;66.98
60337;BME280;46978;50.288;28.624;2023-04-26T01:48:52;97804.07;;;9.45;66.39
60337;BME280;46978;50.288;28.624;2023-04-26T01:49:54;97804.07;;;9.45;66.69
60337;BME280;46978;50.288;28.624;2023-04-26T01:50:55;97798.83;;;9.47;66.65
60337;BME280;46978;50.288;28.624;2023-04-26T01:51:58;97802.25;;;9.47;67.04
60337;BME280;46978;50.288;28.624;2023-04-26T01:53:00;97799.73;;;9.46;66.92
60337;BME280;46978;50.288;28.624;2023-04-26T01:54:01;97797.20;;;9.44;66.90
60337;BME280;46978;50.288;28.624;2023-04-26T01:55:05;97796.36;;;9.44;67.18
60337;BME280;46978;50.288;28.624;2023-04-26T01:56:08;97802.31;;;9.46;67.36
60337;BME280;46978;50.288;28.624;2023-04-26T01:57:10;97796.25;;;9.47;67.66
60337;BME280;46978;50.288;28.624;2023-04-26T01:58:12;97794.55;;;9.46;67.74
60337;BME280;46978;50.288;28.624;2023-04-26T01:59:13;97793.66;;;9.47;67.62
60337;BME280;46978;50.288;28.624;2023-04-26T02:00:16;97797.97;;;9.46;67.78
60337;BME280;46978;50.288;28.624;2023-04-26T02:01:17;97792.79;;;9.46;67.71
60337;BME280;46978;50.288;28.624;2023-04-26T02:02:19;97792.79;;;9.46;67.78
60337;BME280;46978;50.288;28.624;2023-04-26T02:03:21;97786.78;;;9.46;67.83
60337;BME280;46978;50.288;28.624;2023-04-26T02:04:22;97799.67;;;9.47;68.11
60337;BME280;46978;50.288;28.624;2023-04-26T02:05:24;97795.38;;;9.46;68.15
60337;BME280;46978;50.288;28.624;2023-04-26T02:06:25;97789.31;;;9.47;68.27
60337;BME280;46978;50.288;28.624;2023-04-26T02:07:27;97791.06;;;9.47;68.57
60337;BME280;46978;50.288;28.624;2023-04-26T02:08:28;97795.38;;;9.46;68.64
60337;BME280;46978;50.288;28.624;2023-04-26T02:09:30;97787.67;;;9.45;68.47
60337;BME280;46978;50.288;28.624;2023-04-26T02:10:32;97794.55;;;9.46;68.45
60337;BME280;46978;50.288;28.624;2023-04-26T02:11:34;97791.95;;;9.46;68.20
60337;BME280;46978;50.288;28.624;2023-04-26T02:12:35;97794.55;;;9.46;68.36
60337;BME280;46978;50.288;28.624;2023-04-26T02:13:37;97792.85;;;9.45;68.29
60337;BME280;46978;50.288;28.624;2023-04-26T02:14:39;97791.13;;;9.45;68.39
60337;BME280;46978;50.288;28.624;2023-04-26T02:15:44;97789.31;;;9.47;68.25
60337;BME280;46978;50.288;28.624;2023-04-26T02:16:44;97791.06;;;9.47;68.12
60337;BME280;46978;50.288;28.624;2023-04-26T02:17:46;97791.13;;;9.45;68.33
60337;BME280;46978;50.288;28.624;2023-04-26T02:18:47;97789.31;;;9.47;68.23
60337;BME280;46978;50.288;28.624;2023-04-26T02:19:49;97786.72;;;9.47;67.75
60337;BME280;46978;50.288;28.624;2023-04-26T02:20:53;97784.97;;;9.48;67.64
60337;BME280;46978;50.288;28.624;2023-04-26T02:22:03;97787.55;;;9.48;67.58
60337;BME280;46978;50.288;28.624;2023-04-26T02:23:05;97785.02;;;9.46;67.67
60337;BME280;46978;50.288;28.624;2023-04-26T02:24:07;97791.90;;;9.47;67.54
60337;BME280;46978;50.288;28.624;2023-04-26T02:25:08;97778.13;;;9.47;67.85
60337;BME280;46978;50.288;28.624;2023-04-26T02:26:12;97776.30;;;9.49;67.76
60337;BME280;46978;50.288;28.624;2023-04-26T02:27:14;97779.79;;;9.48;67.55
60337;BME280;46978;50.288;28.624;2023-04-26T02:28:16;97781.55;;;9.47;67.25
60337;BME280;46978;50.288;28.624;2023-04-26T02:29:17;97775.53;;;9.47;67.32
60337;BME280;46978;50.288;28.624;2023-04-26T02:30:19;97780.65;;;9.48;67.37
60337;BME280;46978;50.288;28.624;2023-04-26T02:31:22;97777.20;;;9.48;67.01
60337;BME280;46978;50.288;28.624;2023-04-26T02:32:24;97775.53;;;9.47;67.45
60337;BME280;46978;50.288;28.624;2023-04-26T02:33:25;97769.49;;;9.46;66.89
60337;BME280;46978;50.288;28.624;2023-04-26T02:34:27;97772.08;;;9.46;66.95
60337;BME280;46978;50.288;28.624;2023-04-26T02:35:29;97775.53;;;9.47;66.69
60337;BME280;46978;50.288;28.624;2023-04-26T02:36:31;97781.55;;;9.47;66.02
60337;BME280;46978;50.288;28.624;2023-04-26T02:37:33;97773.84;;;9.46;65.45
60337;BME280;46978;50.288;28.624;2023-04-26T02:38:35;97771.19;;;9.47;65.56
60337;BME280;46978;50.288;28.624;2023-04-26T02:39:36;97779.79;;;9.48;65.93
60337;BME280;46978;50.288;28.624;2023-04-26T02:40:38;97784.97;;;9.48;65.51
60337;BME280;46978;50.288;28.624;2023-04-26T02:41:40;97778.95;;;9.47;65.45
60337;BME280;46978;50.288;28.624;2023-04-26T02:42:42;97777.20;;;9.48;65.43
60337;BME280;46978;50.288;28.624;2023-04-26T02:43:43;97778.95;;;9.47;65.17
60337;BME280;46978;50.288;28.624;2023-04-26T02:44:45;97777.20;;;9.48;64.82
60337;BME280;46978;50.288;28.624;2023-04-26T02:45:47;97774.61;;;9.48;65.25
60337;BME280;46978;50.288;28.624;2023-04-26T02:46:49;97783.23;;;9.48;65.26
60337;BME280;46978;50.288;28.624;2023-04-26T02:47:50;97780.65;;;9.48;64.76
60337;BME280;46978;50.288;28.624;2023-04-26T02:48:52;97778.13;;;9.47;65.25
60337;BME280;46978;50.288;28.624;2023-04-26T02:49:54;97773.00;;;9.45;64.96
60337;BME280;46978;50.288;28.624;2023-04-26T02:50:56;97781.66;;;9.44;64.78
60337;BME280;46978;50.288;28.624;2023-04-26T02:51:57;97774.73;;;9.45;64.92
60337;BME280;46978;50.288;28.624;2023-04-26T02:52:59;97780.83;;;9.44;64.94
60337;BME280;46978;50.288;28.624;2023-04-26T02:54:01;97782.55;;;9.43;65.04
60337;BME280;46978;50.288;28.624;2023-04-26T02:55:03;97787.73;;;9.43;64.98
60337;BME280;46978;50.288;28.624;2023-04-26T02:56:06;97783.48;;;9.42;65.22
60337;BME280;46978;50.288;28.624;2023-04-26T02:57:08;97786.07;;;9.42;65.15
60337;BME280;46978;50.288;28.624;2023-04-26T02:58:09;97786.19;;;9.39;64.95
60337;BME280;46978;50.288;28.624;2023-04-26T02:59:13;97781.84;;;9.40;64.72
60337;BME280;46978;50.288;28.624;2023-04-26T03:00:16;97779.25;;;9.40;64.94
60337;BME280;46978;50.288;28.624;2023-04-26T03:01:17;97779.38;;;9.37;65.39
60337;BME280;46978;50.288;28.624;2023-04-26T03:02:19;97779.38;;;9.37;65.15
60337;BME280;46978;50.288;28.624;2023-04-26T03:03:21;97777.61;;;9.37;65.51
60337;BME280;46978;50.288;28.624;2023-04-26T03:04:22;97781.13;;;9.36;65.54
60337;BME280;46978;50.288;28.624;2023-04-26T03:05:24;97777.61;;;9.37;65.47
60337;BME280;46978;50.288;28.624;2023-04-26T03:06:26;97784.55;;;9.37;65.82
60337;BME280;46978;50.288;28.624;2023-04-26T03:07:29;97783.77;;;9.35;66.05
60337;BME280;46978;50.288;28.624;2023-04-26T03:08:33;97787.14;;;9.37;66.08
60337;BME280;46978;50.288;28.624;2023-04-26T03:09:35;97781.96;;;9.37;66.38
60337;BME280;46978;50.288;28.624;2023-04-26T03:10:36;97784.55;;;9.37;67.00
60337;BME280;46978;50.288;28.624;2023-04-26T03:11:38;97782.85;;;9.36;66.93
60337;BME280;46978;50.288;28.624;2023-04-26T03:12:40;97784.61;;;9.35;67.04
60337;BME280;46978;50.288;28.624;2023-04-26T03:13:42;97775.14;;;9.34;66.92
60337;BME280;46978;50.288;28.624;2023-04-26T03:14:43;97778.54;;;9.36;67.38
60337;BME280;46978;50.288;28.624;2023-04-26T03:15:45;97787.97;;;9.37;67.58
60337;BME280;46978;50.288;28.624;2023-04-26T03:16:47;97777.67;;;9.36;67.85
60337;BME280;46978;50.288;28.624;2023-04-26T03:17:48;97782.79;;;9.37;68.04
60337;BME280;46978;50.288;28.624;2023-04-26T03:18:50;97786.25;;;9.38;68.07
60337;BME280;46978;50.288;28.624;2023-04-26T03:19:52;97782.73;;;9.39;68.30
60337;BME280;46978;50.288;28.624;2023-04-26T03:20:54;97792.20;;;9.40;68.62
60337;BME280;46978;50.288;28.624;2023-04-26T03:21:55;97784.48;;;9.38;68.96
60337;BME280;46978;50.288;28.624;2023-04-26T03:22:57;97782.73;;;9.39;68.98
60337;BME280;46978;50.288;28.624;2023-04-26T03:23:58;97786.12;;;9.41;69.26
60337;BME280;46978;50.288;28.624;2023-04-26T03:25:00;97784.38;;;9.41;69.48
60337;BME280;46978;50.288;28.624;2023-04-26T03:26:02;97787.79;;;9.42;69.80
60337;BME280;46978;50.288;28.624;2023-04-26T03:27:04;97788.42;;;9.48;69.50
60337;BME280;46978;50.288;28.624;2023-04-26T03:28:05;97783.00;;;9.55;69.34
60337;BME280;46978;50.288;28.624;2023-04-26T03:29:07;97784.30;;;9.65;69.45
60337;BME280;46978;50.288;28.624;2023-04-26T03:30:10;97783.22;;;9.71;69.51
60337;BME280;46978;50.288;28.624;2023-04-26T03:31:12;97781.28;;;9.76;69.13
60337;BME280;46978;50.288;28.624;2023-04-26T03:32:13;97775.91;;;9.80;68.94
60337;BME280;46978;50.288;28.624;2023-04-26T03:33:15;97779.31;;;9.82;68.84
60337;BME280;46978;50.288;28.624;2023-04-26T03:34:17;97781.96;;;9.81;68.87
60337;BME280;46978;50.288;28.624;2023-04-26T03:35:19;97775.14;;;9.78;69.07
60337;BME280;46978;50.288;28.624;2023-04-26T03:36:21;97776.04;;;9.77;69.56
60337;BME280;46978;50.288;28.624;2023-04-26T03:37:23;97783.04;;;9.75;69.56
60337;BME280;46978;50.288;28.624;2023-04-26T03:38:24;97776.22;;;9.73;69.80
60337;BME280;46978;50.288;28.624;2023-04-26T03:39:26;97778.88;;;9.71;69.91
60337;BME280;46978;50.288;28.624;2023-04-26T03:40:28;97785.88;;;9.69;70.31
60337;BME280;46978;50.288;28.624;2023-04-26T03:41:30;97784.23;;;9.66;70.75
60337;BME280;46978;50.288;28.624;2023-04-26T03:42:32;97790.41;;;9.64;70.99
60337;BME280;46978;50.288;28.624;2023-04-26T03:43:34;97780.17;;;9.61;71.00
60337;BME280;46978;50.288;28.624;2023-04-26T03:44:35;97788.77;;;9.61;71.67
60337;BME280;46978;50.288;28.624;2023-04-26T03:45:37;97783.65;;;9.60;71.69
60337;BME280;46978;50.288;28.624;2023-04-26T03:46:39;97785.41;;;9.59;71.94
60337;BME280;46978;50.288;28.624;2023-04-26T03:47:40;97784.61;;;9.57;72.13
60337;BME280;46978;50.288;28.624;2023-04-26T03:48:42;97781.19;;;9.57;72.36
60337;BME280;46978;50.288;28.624;2023-04-26T03:49:44;97789.02;;;9.55;72.42
60337;BME280;46978;50.288;28.624;2023-04-26T03:50:46;97789.91;;;9.54;72.73
60337;BME280;46978;50.288;28.624;2023-04-26T03:51:47;97785.59;;;9.55;72.89
60337;BME280;46978;50.288;28.624;2023-04-26T03:53:09;97789.07;;;9.54;73.61
60337;BME280;46978;50.288;28.624;2023-04-26T03:54:11;97787.38;;;9.53;73.95
60337;BME280;46978;50.288;28.624;2023-04-26T03:55:13;97793.42;;;9.53;74.32
60337;BME280;46978;50.288;28.624;2023-04-26T03:56:15;97784.78;;;9.53;74.34
60337;BME280;46978;50.288;28.624;2023-04-26T03:57:17;97791.60;;;9.55;74.72
60337;BME280;46978;50.288;28.624;2023-04-26T03:58:19;97789.02;;;9.55;74.85
60337;BME280;46978;50.288;28.624;2023-04-26T03:59:20;97789.78;;;9.57;74.78
60337;BME280;46978;50.288;28.624;2023-04-26T04:00:22;97788.89;;;9.58;74.75
60337;BME280;46978;50.288;28.624;2023-04-26T04:01:24;97792.31;;;9.59;74.97
60337;BME280;46978;50.288;28.624;2023-04-26T04:02:26;97788.83;;;9.60;74.96
60337;BME280;46978;50.288;28.624;2023-04-26T04:03:28;97793.12;;;9.61;75.19
60337;BME280;46978;50.288;28.624;2023-04-26T04:04:49;97789.54;;;9.63;74.96
60337;BME280;46978;50.288;28.624;2023-04-26T04:05:51;97792.01;;;9.66;75.17
60337;BME280;46978;50.288;28.624;2023-04-26T04:06:53;97786.64;;;9.71;74.71
60337;BME280;46978;50.288;28.624;2023-04-26T04:07:54;97786.64;;;9.71;74.71
60337;BME280;46978;50.288;28.624;2023-04-26T04:08:56;97787.20;;;9.79;75.12
60337;BME280;46978;50.288;28.624;2023-04-26T04:09:58;97786.95;;;9.85;74.89
60337;BME280;46978;50.288;28.624;2023-04-26T04:11:00;97786.77;;;9.90;74.78
60337;BME280;46978;50.288;28.624;2023-04-26T04:12:02;97788.30;;;9.94;74.73
60337;BME280;46978;50.288;28.624;2023-04-26T04:13:03;97785.59;;;9.97;74.63
60337;BME280;46978;50.288;28.624;2023-04-26T04:14:05;97787.22;;;10.00;74.74
60337;BME280;46978;50.288;28.624;2023-04-26T04:15:08;97782.69;;;10.05;74.76
60337;BME280;46978;50.288;28.624;2023-04-26T04:16:11;97779.97;;;10.08;74.59
60337;BME280;46978;50.288;28.624;2023-04-26T04:17:12;97783.23;;;10.13;74.56
60337;BME280;46978;50.288;28.624;2023-04-26T04:18:14;97784.83;;;10.16;74.62
60337;BME280;46978;50.288;28.624;2023-04-26T04:19:16;97777.12;;;10.14;74.59
60337;BME280;46978;50.288;28.624;2023-04-26T04:20:18;97782.30;;;10.14;74.33
60337;BME280;46978;50.288;28.624;2023-04-26T04:21:19;97781.47;;;10.14;74.66
60337;BME280;46978;50.288;28.624;2023-04-26T04:22:21;97780.58;;;10.15;74.49
60337;BME280;46978;50.288;28.624;2023-04-26T04:23:23;97781.47;;;10.14;74.31
60337;BME280;46978;50.288;28.624;2023-04-26T04:24:30;97775.39;;;10.15;74.20
60337;BME280;46978;50.288;28.624;2023-04-26T04:25:51;97779.70;;;10.14;74.41
60337;BME280;46978;50.288;28.624;2023-04-26T04:26:53;97774.46;;;10.16;74.48
60337;BME280;46978;50.288;28.624;2023-04-26T04:27:54;97778.69;;;10.18;74.52
60337;BME280;46978;50.288;28.624;2023-04-26T04:28:56;97775.20;;;10.19;74.85
60337;BME280;46978;50.288;28.624;2023-04-26T04:29:58;97779.39;;;10.22;74.90
60337;BME280;46978;50.288;28.624;2023-04-26T04:31:00;97778.42;;;10.25;74.72
60337;BME280;46978;50.288;28.624;2023-04-26T04:32:01;97778.36;;;10.26;74.93
60337;BME280;46978;50.288;28.624;2023-04-26T04:33:03;97774.94;;;10.26;74.88
60337;BME280;46978;50.288;28.624;2023-04-26T04:34:04;97779.99;;;10.29;74.82
60337;BME280;46978;50.288;28.624;2023-04-26T04:35:07;97776.53;;;10.28;74.90
60337;BME280;46978;50.288;28.624;2023-04-26T04:36:09;97770.39;;;10.31;74.84
60337;BME280;46978;50.288;28.624;2023-04-26T04:37:11;97768.59;;;10.33;74.91
60337;BME280;46978;50.288;28.624;2023-04-26T04:38:12;97779.77;;;10.35;75.20
60337;BME280;46978;50.288;28.624;2023-04-26T04:39:14;97777.17;;;10.35;75.38
60337;BME280;46978;50.288;28.624;2023-04-26T04:40:17;97780.53;;;10.37;75.02
60337;BME280;46978;50.288;28.624;2023-04-26T04:41:19;97780.47;;;10.38;74.85
60337;BME280;46978;50.288;28.624;2023-04-26T04:42:21;97775.34;;;10.37;74.67
60337;BME280;46978;50.288;28.624;2023-04-26T04:43:23;97777.94;;;10.37;74.98
60337;BME280;46978;50.288;28.624;2023-04-26T04:44:25;97771.92;;;10.36;74.88
60337;BME280;46978;50.288;28.624;2023-04-26T04:45:26;97776.17;;;10.37;75.00
60337;BME280;46978;50.288;28.624;2023-04-26T04:46:28;97779.62;;;10.38;75.10
60337;BME280;46978;50.288;28.624;2023-04-26T04:47:30;97774.45;;;10.38;75.03
60337;BME280;46978;50.288;28.624;2023-04-26T04:48:31;97777.80;;;10.40;74.96
60337;BME280;46978;50.288;28.624;2023-04-26T04:49:33;97774.25;;;10.43;75.37
60337;BME280;46978;50.288;28.624;2023-04-26T04:50:35;97775.08;;;10.43;75.53
60337;BME280;46978;50.288;28.624;2023-04-26T04:51:37;97772.42;;;10.45;75.18
60337;BME280;46978;50.288;28.624;2023-04-26T04:52:39;97772.35;;;10.46;75.13
60337;BME280;46978;50.288;28.624;2023-04-26T04:53:41;97773.19;;;10.47;75.17
60337;BME280;46978;50.288;28.624;2023-04-26T04:54:42;97771.39;;;10.49;75.05
60337;BME280;46978;50.288;28.624;2023-04-26T04:55:44;97776.58;;;10.49;75.41
60337;BME280;46978;50.288;28.624;2023-04-26T04:56:46;97769.56;;;10.51;75.11
60337;BME280;46978;50.288;28.624;2023-04-26T04:57:48;97768.59;;;10.53;75.20
60337;BME280;46978;50.288;28.624;2023-04-26T04:58:49;97770.27;;;10.54;75.03
60337;BME280;46978;50.288;28.624;2023-04-26T04:59:52;97775.31;;;10.57;75.11
60337;BME280;46978;50.288;28.624;2023-04-26T05:00:54;97768.30;;;10.59;75.22
60337;BME280;46978;50.288;28.624;2023-04-26T05:01:55;97771.89;;;10.57;74.98
60337;BME280;46978;50.288;28.624;2023-04-26T05:02:57;97777.01;;;10.58;75.21
60337;BME280;46978;50.288;28.624;2023-04-26T05:03:59;97774.48;;;10.57;75.35
60337;BME280;46978;50.288;28.624;2023-04-26T05:05:02;97778.80;;;10.56;75.39
60337;BME280;46978;50.288;28.624;2023-04-26T05:06:04;97778.73;;;10.58;75.57
60337;BME280;46978;50.288;28.624;2023-04-26T05:07:06;97773.62;;;10.56;75.49
60337;BME280;46978;50.288;28.624;2023-04-26T05:08:07;97780.50;;;10.57;75.51
60337;BME280;46978;50.288;28.624;2023-04-26T05:09:09;97778.73;;;10.58;75.56
60337;BME280;46978;50.288;28.624;2023-04-26T05:10:12;97778.73;;;10.58;75.49
60337;BME280;46978;50.288;28.624;2023-04-26T05:11:13;97773.78;;;10.53;75.40
60337;BME280;46978;50.288;28.624;2023-04-26T05:12:15;97782.47;;;10.52;75.47
60337;BME280;46978;50.288;28.624;2023-04-26T05:13:16;97780.00;;;10.49;75.29
60337;BME280;46978;50.288;28.624;2023-04-26T05:14:18;97773.31;;;10.44;75.50
60337;BME280;46978;50.288;28.624;2023-04-26T05:15:20;97778.64;;;10.40;75.78
60337;BME280;46978;50.288;28.624;2023-04-26T05:16:21;97789.20;;;10.36;76.18
60337;BME280;46978;50.288;28.624;2023-04-26T05:17:23;97772.91;;;10.32;76.49
60337;BME280;46978;50.288;28.624;2023-04-26T05:18:25;97788.53;;;10.31;76.54
60337;BME280;46978;50.288;28.624;2023-04-26T05:19:26;97784.38;;;10.27;76.81
60337;BME280;46978;50.288;28.624;2023-04-26T05:20:28;97785.38;;;10.24;77.21
60337;BME280;46978;50.288;28.624;2023-04-26T05:21:30;97787.97;;;10.24;77.23
60337;BME280;46978;50.288;28.624;2023-04-26T05:22:31;97792.28;;;10.23;77.57
60337;BME280;46978;50.288;28.624;2023-04-26T05:23:33;97788.03;;;10.22;77.71
60337;BME280;46978;50.288;28.624;2023-04-26T05:24:35;97784.70;;;10.19;77.87
60337;BME280;46978;50.288;28.624;2023-04-26T05:25:37;97784.77;;;10.17;78.42
60337;BME280;46978;50.288;28.624;2023-04-26T05:26:38;97789.05;;;10.18;78.10
60337;BME280;46978;50.288;28.624;2023-04-26T05:27:40;97786.27;;;10.23;77.95
60337;BME280;46978;50.288;28.624;2023-04-26T05:28:42;97786.91;;;10.28;77.93
60337;BME280;46978;50.288;28.624;2023-04-26T05:29:44;97785.05;;;10.32;77.68
60337;BME280;46978;50.288;28.624;2023-04-26T05:30:45;97788.38;;;10.35;77.73
60337;BME280;46978;50.288;28.624;2023-04-26T05:31:47;97787.41;;;10.38;77.57
60337;BME280;46978;50.288;28.624;2023-04-26T05:32:49;97780.39;;;10.40;77.49
60337;BME280;46978;50.288;28.624;2023-04-26T05:33:50;97779.56;;;10.39;77.39
60337;BME280;46978;50.288;28.624;2023-04-26T05:34:52;97789.94;;;10.39;77.56